createdAt,value
2018-09-04T00:00:22.079Z,87.3
2018-09-04T00:01:02.601Z,87.3
2018-09-04T00:01:43.141Z,87.12
2018-09-04T00:02:23.636Z,87.02
2018-09-04T00:03:04.165Z,87.4
2018-09-04T00:03:44.689Z,87.5
2018-09-04T00:04:25.206Z,87.02
2018-09-04T00:05:05.734Z,87.12
2018-09-04T00:05:46.232Z,87.4
2018-09-04T00:06:26.866Z,87.5
2018-09-04T00:07:07.387Z,87.6
2018-09-04T00:07:47.909Z,87.6
2018-09-04T00:08:28.413Z,87.4
2018-09-04T00:09:08.945Z,87.3
2018-09-04T00:09:49.468Z,87.7
2018-09-04T00:10:29.995Z,87.79
2018-09-04T00:11:10.519Z,87.6
2018-09-04T00:11:51.049Z,87.5
2018-09-04T00:12:31.562Z,87.7
2018-09-04T00:13:12.106Z,87.6
2018-09-04T00:13:52.638Z,87.6
2018-09-04T00:14:33.157Z,87.6
2018-09-04T00:15:13.690Z,87.7
2018-09-04T00:15:54.211Z,87.88
2018-09-04T00:16:34.736Z,87.7
2018-09-04T00:17:15.272Z,87.79
2018-09-04T00:17:55.887Z,87.4
2018-09-04T00:18:36.386Z,87.5
2018-09-04T00:19:16.896Z,87.3
2018-09-04T00:19:57.425Z,87.5
2018-09-04T00:20:37.957Z,87.4
2018-09-04T00:21:18.470Z,87.6
2018-09-04T00:21:58.985Z,87.5
2018-09-04T00:22:39.493Z,87.7
2018-09-04T00:23:20.039Z,87.88
2018-09-04T00:24:00.584Z,87.88
2018-09-04T00:24:41.107Z,87.5
2018-09-04T00:25:21.622Z,87.5
2018-09-04T00:26:02.173Z,87.6
2018-09-04T00:26:42.701Z,87.6
2018-09-04T00:27:23.186Z,87.6
2018-09-04T00:28:03.709Z,87.6
2018-09-04T00:28:44.234Z,87.6
2018-09-04T00:29:24.774Z,87.5
2018-09-04T00:30:05.290Z,87.5
2018-09-04T00:30:45.801Z,87.5
2018-09-04T00:31:26.313Z,87.5
2018-09-04T00:32:06.822Z,87.21
2018-09-04T00:32:47.337Z,87.02
2018-09-04T00:33:27.889Z,86.92
2018-09-04T00:34:08.400Z,87.4
2018-09-04T00:34:48.938Z,87.5
2018-09-04T00:35:29.457Z,87.6
2018-09-04T00:36:09.976Z,87.7
2018-09-04T00:36:50.532Z,87.6
2018-09-04T00:37:31.057Z,87.4
2018-09-04T00:38:11.809Z,87.6
2018-09-04T00:38:52.161Z,87.79
2018-09-04T00:39:32.680Z,87.55
2018-09-04T00:40:13.203Z,88.04
2018-09-04T00:40:53.719Z,87.46
2018-09-04T00:41:34.235Z,88.32
2018-09-04T00:42:14.745Z,87.94
2018-09-04T00:42:55.340Z,88.23
2018-09-04T00:43:35.775Z,88.04
2018-09-04T00:44:16.299Z,88.23
2018-09-04T00:44:56.831Z,88.04
2018-09-04T00:45:37.358Z,88.13
2018-09-04T00:46:17.881Z,88.04
2018-09-04T00:46:58.429Z,87.55
2018-09-04T00:47:38.960Z,88.04
2018-09-04T00:48:19.482Z,87.65
2018-09-04T00:49:00.758Z,88.13
2018-09-04T00:49:40.529Z,88.61
2018-09-04T00:50:21.019Z,88.51
2018-09-04T00:51:02.258Z,87.99
2018-09-04T00:51:42.218Z,88.38
2018-09-04T00:52:22.735Z,88.47
2018-09-04T00:53:03.248Z,88.95
2018-09-04T00:53:43.772Z,88.76
2018-09-04T00:54:24.308Z,88.47
2018-09-04T00:55:04.893Z,88.57
2018-09-04T00:55:45.368Z,88.85
2018-09-04T00:56:25.875Z,88.76
2018-09-04T00:57:06.404Z,88.47
2018-09-04T00:57:46.916Z,88.47
2018-09-04T00:58:27.442Z,88.76
2018-09-04T00:59:08.058Z,88.47
2018-09-04T00:59:48.479Z,88.57
2018-09-04T01:00:29.015Z,89.05
2018-09-04T01:01:09.521Z,88.47
2018-09-04T01:01:50.069Z,88.28
2018-09-04T01:02:30.611Z,88.67
2018-09-04T01:03:11.146Z,88.18
2018-09-04T01:03:51.685Z,88.61
2018-09-04T01:04:32.195Z,88.42
2018-09-04T01:05:12.713Z,88.42
2018-09-04T01:05:53.213Z,88.23
2018-09-04T01:06:33.736Z,88.61
2018-09-04T01:07:14.250Z,87.94
2018-09-04T01:07:54.775Z,87.84
2018-09-04T01:08:35.290Z,87.94
2018-09-04T01:09:15.816Z,88.04
2018-09-04T01:09:56.340Z,87.55
2018-09-04T01:10:36.895Z,88.13
2018-09-04T01:11:17.589Z,87.94
2018-09-04T01:11:58.120Z,87.94
2018-09-04T01:12:38.647Z,88.32
2018-09-04T01:13:19.160Z,88.04
2018-09-04T01:13:59.678Z,88.13
2018-09-04T01:14:40.206Z,88.04
2018-09-04T01:15:20.721Z,88.13
2018-09-04T01:16:01.249Z,88.13
2018-09-04T01:16:41.773Z,88.04
2018-09-04T01:17:22.281Z,87.94
2018-09-04T01:18:02.819Z,88.04
2018-09-04T01:18:43.337Z,87.84
2018-09-04T01:19:23.912Z,88.09
2018-09-04T01:20:04.448Z,87.94
2018-09-04T01:20:44.970Z,88.13
2018-09-04T01:21:25.501Z,88.04
2018-09-04T01:22:06.019Z,88.13
2018-09-04T01:22:46.532Z,87.55
2018-09-04T01:23:27.049Z,88.23
2018-09-04T01:24:07.589Z,88.51
2018-09-04T01:24:48.112Z,88.38
2018-09-04T01:25:28.653Z,88.47
2018-09-04T01:26:09.202Z,88.76
2018-09-04T01:26:49.734Z,88.28
2018-09-04T01:27:30.259Z,88.76
2018-09-04T01:28:10.786Z,88.85
2018-09-04T01:28:51.304Z,88.47
2018-09-04T01:29:31.829Z,89.05
2018-09-04T01:30:12.366Z,88.57
2018-09-04T01:30:52.895Z,88.95
2018-09-04T01:31:33.406Z,88.57
2018-09-04T01:32:13.929Z,88.67
2018-09-04T01:32:54.427Z,88.28
2018-09-04T01:33:34.943Z,88.28
2018-09-04T01:34:16.515Z,88.09
2018-09-04T01:34:57.048Z,87.99
2018-09-04T01:35:37.563Z,88.38
2018-09-04T01:36:18.079Z,88.38
2018-09-04T01:36:58.629Z,88.57
2018-09-04T01:37:39.151Z,88.28
2018-09-04T01:38:19.695Z,88.38
2018-09-04T01:39:00.295Z,88.28
2018-09-04T01:39:40.810Z,88.28
2018-09-04T01:40:21.339Z,88.18
2018-09-04T01:41:01.878Z,88.85
2018-09-04T01:41:42.391Z,88.47
2018-09-04T01:42:22.911Z,88.28
2018-09-04T01:43:03.432Z,88.67
2018-09-04T01:43:43.965Z,88.67
2018-09-04T01:44:24.520Z,88.76
2018-09-04T01:45:05.046Z,88.57
2018-09-04T01:45:45.582Z,88.67
2018-09-04T01:46:26.105Z,88.85
2018-09-04T01:47:06.622Z,88.57
2018-09-04T01:47:47.134Z,88.67
2018-09-04T01:48:27.684Z,88.57
2018-09-04T01:49:08.219Z,88.38
2018-09-04T01:49:48.752Z,88.76
2018-09-04T01:50:29.263Z,88.67
2018-09-04T01:51:09.768Z,88.76
2018-09-04T01:51:50.281Z,88.57
2018-09-04T01:52:30.822Z,88.47
2018-09-04T01:53:11.337Z,88.67
2018-09-04T01:53:51.842Z,88.38
2018-09-04T01:54:32.384Z,88.57
2018-09-04T01:55:12.921Z,88.67
2018-09-04T01:55:53.444Z,88.85
2018-09-04T01:56:33.967Z,88.67
2018-09-04T01:57:14.487Z,88.57
2018-09-04T01:57:55.026Z,88.57
2018-09-04T01:58:35.525Z,88.57
2018-09-04T01:59:16.070Z,88.57
2018-09-04T01:59:56.625Z,88.47
2018-09-04T02:00:37.131Z,88.62
2018-09-04T02:01:17.674Z,88.76
2018-09-04T02:01:58.219Z,88.81
2018-09-04T02:02:38.753Z,88.95
2018-09-04T02:03:19.282Z,88.67
2018-09-04T02:03:59.795Z,88.57
2018-09-04T02:04:40.318Z,88.95
2018-09-04T02:05:20.840Z,88.28
2018-09-04T02:06:01.376Z,88.71
2018-09-04T02:06:41.893Z,88.67
2018-09-04T02:07:22.411Z,88.38
2018-09-04T02:08:02.932Z,88.57
2018-09-04T02:08:43.465Z,88.57
2018-09-04T02:09:24.023Z,88.47
2018-09-04T02:10:04.541Z,88.38
2018-09-04T02:10:45.047Z,88.47
2018-09-04T02:11:25.564Z,88.47
2018-09-04T02:12:06.099Z,88.57
2018-09-04T02:12:46.636Z,88.57
2018-09-04T02:13:27.143Z,88.53
2018-09-04T02:14:07.657Z,88.57
2018-09-04T02:14:48.180Z,88.43
2018-09-04T02:15:28.707Z,88.38
2018-09-04T02:16:09.233Z,88.57
2018-09-04T02:16:49.752Z,88.95
2018-09-04T02:17:30.269Z,88.67
2018-09-04T02:18:10.792Z,88.76
2018-09-04T02:18:51.321Z,88.28
2018-09-04T02:19:31.854Z,88.28
2018-09-04T02:20:12.374Z,88.28
2018-09-04T02:20:52.901Z,88.76
2018-09-04T02:21:33.425Z,88.76
2018-09-04T02:22:13.958Z,88.91
2018-09-04T02:22:54.482Z,88.85
2018-09-04T02:23:35.005Z,88.47
2018-09-04T02:24:15.516Z,88.18
2018-09-04T02:24:56.063Z,88.91
2018-09-04T02:25:36.541Z,88.62
2018-09-04T02:26:17.062Z,88.81
2018-09-04T02:26:57.578Z,88.71
2018-09-04T02:27:38.106Z,88.43
2018-09-04T02:28:18.672Z,88.62
2018-09-04T02:28:59.186Z,88.85
2018-09-04T02:29:39.716Z,88.43
2018-09-04T02:30:20.237Z,88.71
2018-09-04T02:31:00.757Z,88.57
2018-09-04T02:31:41.274Z,88.62
2018-09-04T02:32:21.798Z,88.81
2018-09-04T02:33:02.330Z,88.53
2018-09-04T02:33:42.845Z,88.14
2018-09-04T02:34:23.392Z,88.43
2018-09-04T02:35:03.912Z,88.43
2018-09-04T02:35:44.435Z,88.71
2018-09-04T02:36:24.956Z,88.71
2018-09-04T02:37:05.478Z,89.01
2018-09-04T02:37:46.007Z,88.62
2018-09-04T02:38:27.293Z,89.1
2018-09-04T02:39:07.823Z,88.81
2018-09-04T02:39:48.348Z,88.53
2018-09-04T02:40:28.868Z,88.53
2018-09-04T02:41:09.389Z,88.71
2018-09-04T02:41:49.909Z,88.62
2018-09-04T02:42:30.454Z,88.71
2018-09-04T02:43:10.974Z,88.71
2018-09-04T02:43:51.493Z,89.2
2018-09-04T02:44:32.002Z,89.01
2018-09-04T02:45:12.515Z,88.91
2018-09-04T02:45:53.035Z,88.71
2018-09-04T02:46:33.553Z,88.53
2018-09-04T02:47:14.087Z,88.71
2018-09-04T02:47:54.602Z,88.71
2018-09-04T02:48:35.112Z,88.53
2018-09-04T02:49:15.645Z,88.43
2018-09-04T02:49:56.333Z,88.53
2018-09-04T02:50:36.874Z,88.81
2018-09-04T02:51:17.416Z,88.71
2018-09-04T02:51:57.980Z,88.91
2018-09-04T02:52:38.456Z,88.62
2018-09-04T02:53:18.978Z,88.62
2018-09-04T02:53:59.524Z,88.81
2018-09-04T02:54:40.007Z,89.01
2018-09-04T02:55:20.518Z,89.1
2018-09-04T02:56:01.044Z,88.91
2018-09-04T02:56:41.558Z,88.62
2018-09-04T02:57:22.057Z,89.01
2018-09-04T02:58:02.589Z,88.81
2018-09-04T02:58:43.119Z,88.71
2018-09-04T02:59:23.644Z,88.53
2018-09-04T03:00:04.154Z,88.81
2018-09-04T03:00:44.663Z,88.33
2018-09-04T03:01:25.188Z,88.62
2018-09-04T03:02:05.703Z,88.62
2018-09-04T03:02:46.216Z,88.81
2018-09-04T03:03:26.749Z,88.71
2018-09-04T03:04:07.277Z,88.91
2018-09-04T03:04:47.799Z,89.01
2018-09-04T03:05:28.322Z,88.71
2018-09-04T03:06:08.834Z,88.53
2018-09-04T03:06:49.359Z,88.33
2018-09-04T03:07:29.915Z,88.62
2018-09-04T03:08:10.435Z,88.43
2018-09-04T03:08:50.971Z,88.53
2018-09-04T03:09:31.481Z,88.62
2018-09-04T03:10:11.994Z,88.71
2018-09-04T03:10:52.515Z,89.01
2018-09-04T03:11:33.032Z,89.1
2018-09-04T03:12:13.550Z,88.91
2018-09-04T03:12:54.062Z,88.91
2018-09-04T03:13:34.696Z,89.1
2018-09-04T03:14:15.105Z,88.91
2018-09-04T03:14:55.618Z,88.81
2018-09-04T03:15:36.135Z,89.29
2018-09-04T03:16:16.699Z,88.62
2018-09-04T03:16:57.233Z,89.58
2018-09-04T03:17:37.757Z,88.53
2018-09-04T03:18:18.885Z,88.91
2018-09-04T03:18:59.389Z,88.71
2018-09-04T03:19:39.916Z,88.81
2018-09-04T03:20:20.418Z,88.81
2018-09-04T03:21:00.932Z,89.29
2018-09-04T03:21:41.460Z,89.58
2018-09-04T03:22:22.004Z,89.2
2018-09-04T03:23:02.573Z,89.2
2018-09-04T03:23:43.047Z,89.68
2018-09-04T03:24:23.596Z,89.1
2018-09-04T03:25:04.135Z,89.29
2018-09-04T03:25:44.663Z,89.2
2018-09-04T03:26:25.191Z,88.91
2018-09-04T03:27:05.728Z,89.15
2018-09-04T03:27:46.248Z,89.64
2018-09-04T03:28:26.750Z,88.48
2018-09-04T03:29:07.276Z,89.1
2018-09-04T03:29:47.802Z,88.71
2018-09-04T03:30:28.359Z,88.91
2018-09-04T03:31:08.881Z,89.06
2018-09-04T03:31:49.399Z,89.25
2018-09-04T03:32:29.905Z,89.35
2018-09-04T03:33:10.421Z,89.83
2018-09-04T03:33:50.943Z,89.25
2018-09-04T03:34:31.485Z,89.35
2018-09-04T03:35:11.995Z,89.44
2018-09-04T03:35:52.503Z,89.35
2018-09-04T03:36:33.022Z,89.15
2018-09-04T03:37:13.541Z,89.06
2018-09-04T03:37:54.060Z,89.25
2018-09-04T03:38:34.591Z,89.35
2018-09-04T03:39:15.105Z,89.25
2018-09-04T03:39:55.623Z,89.35
2018-09-04T03:40:36.176Z,89.25
2018-09-04T03:41:17.631Z,89.15
2018-09-04T03:41:58.140Z,89.15
2018-09-04T03:42:38.986Z,89.15
2018-09-04T03:43:19.531Z,89.54
2018-09-04T03:44:00.047Z,88.67
2018-09-04T03:44:40.592Z,88.57
2018-09-04T03:45:21.105Z,88.96
2018-09-04T03:46:01.721Z,88.87
2018-09-04T03:46:42.253Z,89.06
2018-09-04T03:47:22.775Z,88.87
2018-09-04T03:48:03.292Z,89.06
2018-09-04T03:50:01.761Z,89.35
2018-09-04T03:50:42.274Z,89.64
2018-09-04T03:51:22.781Z,89.25
2018-09-04T03:52:03.299Z,88.67
2018-09-04T03:52:44.044Z,88.67
2018-09-04T03:53:24.690Z,88.57
2018-09-04T03:54:05.166Z,88.67
2018-09-04T03:54:45.687Z,88.87
2018-09-04T03:57:04.072Z,89.44
2018-09-04T03:57:44.584Z,89.5
2018-09-04T03:58:25.104Z,89.54
2018-09-04T03:59:05.651Z,89.83
2018-09-04T03:59:46.141Z,89.44
2018-09-04T04:00:26.669Z,89.73
2018-09-04T04:01:07.182Z,89.73
2018-09-04T04:01:47.692Z,89.59
2018-09-04T04:02:28.227Z,89.59
2018-09-04T04:03:08.761Z,89.88
2018-09-04T04:03:49.269Z,89.73
2018-09-04T04:04:29.801Z,89.83
2018-09-04T04:05:10.432Z,89.83
2018-09-04T04:05:50.959Z,89.25
2018-09-04T04:06:31.476Z,88.96
2018-09-04T04:07:11.992Z,89.35
2018-09-04T04:07:52.525Z,88.77
2018-09-04T04:08:33.035Z,89.15
2018-09-04T04:09:13.549Z,89.15
2018-09-04T04:09:54.055Z,89.06
2018-09-04T04:10:34.576Z,88.67
2018-09-04T04:11:15.115Z,89.25
2018-09-04T04:11:55.697Z,89.25
2018-09-04T04:12:36.209Z,89.44
2018-09-04T04:14:50.161Z,89.35
2018-09-04T04:15:30.669Z,89.35
2018-09-04T04:16:11.189Z,89.35
2018-09-04T04:16:51.705Z,89.25
2018-09-04T04:17:32.215Z,89.44
2018-09-04T04:18:12.733Z,89.44
2018-09-04T04:18:53.258Z,89.44
2018-09-04T04:19:33.766Z,89.35
2018-09-04T04:20:14.283Z,89.25
2018-09-04T04:20:54.791Z,89.15
2018-09-04T04:21:35.309Z,89.4
2018-09-04T04:22:15.822Z,89.25
2018-09-04T04:22:56.363Z,89.69
2018-09-04T04:23:36.877Z,89.59
2018-09-04T04:24:17.389Z,90.26
2018-09-04T04:24:57.922Z,90.17
2018-09-04T04:25:38.413Z,90.36
2018-09-04T04:26:19.042Z,90.84
2018-09-04T04:26:59.590Z,90.55
2018-09-04T04:27:40.115Z,90.84
2018-09-04T04:28:20.631Z,90.36
2018-09-04T04:29:01.144Z,90.65
2018-09-04T04:29:41.666Z,90.45
2018-09-04T04:30:22.186Z,90.94
2018-09-04T04:31:02.720Z,90.84
2018-09-04T04:31:43.238Z,90.45
2018-09-04T04:32:23.759Z,90.45
2018-09-04T04:33:04.383Z,90.07
2018-09-04T04:33:44.812Z,90.07
2018-09-04T04:34:25.329Z,90.07
2018-09-04T04:35:05.856Z,90.07
2018-09-04T04:35:46.373Z,90.17
2018-09-04T04:36:26.919Z,90.36
2018-09-04T04:37:07.454Z,90.07
2018-09-04T04:37:47.959Z,90.07
2018-09-04T04:38:28.476Z,90.45
2018-09-04T04:39:08.989Z,90.45
2018-09-04T04:39:49.551Z,90.45
2018-09-04T04:40:30.018Z,90.07
2018-09-04T04:41:10.538Z,90.26
2018-09-04T04:41:51.057Z,90.65
2018-09-04T04:42:31.583Z,90.17
2018-09-04T04:43:12.110Z,90.84
2018-09-04T04:43:52.630Z,90.75
2018-09-04T04:44:33.165Z,90.75
2018-09-04T04:45:13.661Z,90.84
2018-09-04T04:45:54.188Z,90.94
2018-09-04T04:46:34.705Z,90.84
2018-09-04T04:47:15.248Z,90.55
2018-09-04T04:47:55.888Z,90.84
2018-09-04T04:48:36.283Z,90.65
2018-09-04T04:49:16.793Z,91.13
2018-09-04T04:49:57.420Z,90.75
2018-09-04T04:50:37.916Z,90.75
2018-09-04T04:51:18.456Z,90.65
2018-09-04T04:51:59.164Z,90.75
2018-09-04T04:52:39.710Z,90.65
2018-09-04T04:53:20.226Z,90.84
2018-09-04T04:54:00.795Z,90.94
2018-09-04T04:54:41.281Z,90.84
2018-09-04T04:55:21.805Z,90.94
2018-09-04T04:56:02.331Z,90.94
2018-09-04T04:56:42.849Z,90.84
2018-09-04T04:57:23.411Z,91.13
2018-09-04T04:58:03.922Z,91.32
2018-09-04T04:58:44.430Z,91.42
2018-09-04T04:59:24.956Z,91.22
2018-09-04T05:00:05.475Z,91.42
2018-09-04T05:00:46.002Z,90.75
2018-09-04T05:01:26.517Z,90.94
2018-09-04T05:02:07.067Z,90.84
2018-09-04T05:02:47.560Z,90.75
2018-09-04T05:03:28.071Z,90.65
2018-09-04T05:04:08.636Z,90.55
2018-09-04T05:04:49.102Z,90.65
2018-09-04T05:05:29.770Z,90.26
2018-09-04T05:06:10.474Z,89.83
2018-09-04T05:06:51.000Z,90.17
2018-09-04T05:07:31.537Z,90.17
2018-09-04T05:08:12.060Z,90.21
2018-09-04T05:08:52.580Z,89.78
2018-09-04T05:09:33.352Z,90.17
2018-09-04T05:10:13.943Z,90.41
2018-09-04T05:10:54.421Z,89.73
2018-09-04T05:11:34.969Z,89.73
2018-09-04T05:12:15.447Z,89.92
2018-09-04T05:12:55.976Z,90.5
2018-09-04T05:13:36.499Z,90.12
2018-09-04T05:14:17.086Z,91.36
2018-09-04T05:14:57.627Z,96.75
2018-09-04T05:15:38.096Z,97.24
2018-09-04T05:16:18.618Z,99.93
2018-09-04T05:16:59.114Z,98.49
2018-09-04T05:17:39.634Z,96.08
2018-09-04T05:18:20.139Z,97.91
2018-09-04T05:19:00.663Z,96.56
2018-09-04T05:19:41.180Z,97.47
2018-09-04T05:20:21.691Z,99.98
2018-09-04T05:21:02.303Z,97.67
2018-09-04T05:21:42.822Z,96.99
2018-09-04T05:22:23.380Z,96.32
2018-09-04T05:23:03.900Z,98.24
2018-09-04T05:23:44.413Z,99.69
2018-09-04T05:24:24.941Z,97.19
2018-09-04T05:25:05.448Z,98.82
2018-09-04T05:25:45.961Z,99.98
2018-09-04T05:26:26.473Z,99.78
2018-09-04T05:27:07.045Z,99.3
2018-09-04T05:27:47.553Z,99.88
2018-09-04T05:28:28.081Z,99.99
2018-09-04T05:29:08.588Z,99.99
2018-09-04T05:29:49.114Z,99.99
2018-09-04T05:30:29.667Z,99.99
2018-09-04T05:31:10.197Z,93.82
2018-09-04T05:31:50.718Z,97.09
2018-09-04T05:32:31.232Z,98.82
2018-09-04T05:33:11.763Z,98.92
2018-09-04T05:33:52.286Z,99.99
2018-09-04T05:34:32.801Z,99.26
2018-09-04T05:35:13.327Z,98.39
2018-09-04T05:35:53.842Z,99.99
2018-09-04T05:36:34.375Z,97.72
2018-09-04T05:37:14.856Z,99.74
2018-09-04T05:37:55.393Z,99.99
2018-09-04T05:38:35.906Z,98.77
2018-09-04T05:39:16.427Z,99.06
2018-09-04T05:39:56.929Z,99.54
2018-09-04T05:40:37.483Z,96.75
2018-09-04T05:41:18.608Z,98.97
2018-09-04T05:41:59.158Z,98.77
2018-09-04T05:42:39.672Z,97.04
2018-09-04T05:43:20.184Z,97.62
2018-09-04T05:44:00.724Z,95.98
2018-09-04T05:44:41.220Z,95.12
2018-09-04T05:45:21.734Z,95.89
2018-09-04T05:46:02.322Z,94.73
2018-09-04T05:46:42.780Z,94.25
2018-09-04T05:47:23.307Z,94.64
2018-09-04T05:48:03.835Z,96.17
2018-09-04T05:48:44.343Z,96.37
2018-09-04T05:49:24.868Z,95.69
2018-09-04T05:50:05.421Z,96.46
2018-09-04T05:50:45.926Z,97.04
2018-09-04T05:51:26.447Z,95.69
2018-09-04T05:52:07.003Z,94.92
2018-09-04T05:52:47.529Z,94.64
2018-09-04T05:53:28.108Z,94.82
2018-09-04T05:54:08.673Z,93.29
2018-09-04T05:54:49.199Z,94.54
2018-09-04T05:55:29.747Z,95.02
2018-09-04T05:56:10.356Z,94.54
2018-09-04T05:56:50.882Z,95.31
2018-09-04T05:57:31.427Z,96.08
2018-09-04T05:58:11.951Z,96.27
2018-09-04T05:58:52.483Z,95.89
2018-09-04T05:59:32.984Z,95.6
2018-09-04T06:00:13.524Z,95.21
2018-09-04T06:00:54.030Z,94.34
2018-09-04T06:01:34.540Z,97.28
2018-09-04T06:02:15.070Z,97.38
2018-09-04T06:02:55.560Z,96.99
2018-09-04T06:03:36.105Z,99.3
2018-09-04T06:04:16.612Z,99.5
2018-09-04T06:04:57.330Z,98.82
2018-09-04T06:05:37.827Z,99.59
2018-09-04T06:06:18.336Z,99.79
2018-09-04T06:06:58.857Z,99.99
2018-09-04T06:07:39.370Z,99.59
2018-09-04T06:08:20.032Z,95.64
2018-09-04T06:09:00.565Z,95.69
2018-09-04T06:09:41.091Z,98.82
2018-09-04T06:10:21.607Z,99.99
2018-09-04T06:11:02.127Z,99.99
2018-09-04T06:11:42.638Z,99.99
2018-09-04T06:12:23.362Z,99.99
2018-09-04T06:13:03.870Z,99.99
2018-09-04T06:13:44.440Z,97.52
2018-09-04T06:14:24.896Z,99.74
2018-09-04T06:15:05.457Z,99.99
2018-09-04T06:15:45.987Z,99.07
2018-09-04T06:16:26.530Z,99.99
2018-09-04T06:17:07.049Z,99.99
2018-09-04T06:17:47.571Z,99.99
2018-09-04T06:18:28.127Z,99.99
2018-09-04T06:19:08.669Z,96.46
2018-09-04T06:19:49.285Z,95.31
2018-09-04T06:20:29.805Z,90.1
2018-09-04T06:21:10.340Z,95.11
2018-09-04T06:21:50.848Z,98.49
2018-09-04T06:22:31.370Z,97.72
2018-09-04T06:23:11.895Z,99.69
2018-09-04T06:23:52.415Z,99.99
2018-09-04T06:24:32.983Z,99.99
2018-09-04T06:25:13.499Z,99.99
2018-09-04T06:25:54.021Z,99.99
2018-09-04T06:26:34.546Z,99.99
2018-09-04T06:27:15.093Z,99.99
2018-09-04T06:27:55.633Z,99.99
2018-09-04T06:28:36.153Z,99.99
2018-09-04T06:29:16.697Z,97.77
2018-09-04T06:29:57.237Z,97.77
2018-09-04T06:30:37.773Z,99.98
2018-09-04T06:31:18.291Z,98.05
2018-09-04T06:31:58.811Z,96.8
2018-09-04T06:32:39.376Z,98.82
2018-09-04T06:33:19.878Z,95.5
2018-09-04T06:34:00.465Z,93.38
2018-09-04T06:34:40.972Z,91.69
2018-09-04T06:35:21.503Z,92.27
2018-09-04T06:36:02.028Z,91.78
2018-09-04T06:36:42.619Z,93.23
2018-09-04T06:37:23.181Z,96.99
2018-09-04T06:38:03.709Z,92.03
2018-09-04T06:38:44.279Z,93.19
2018-09-04T06:39:24.896Z,94.48
2018-09-04T06:40:05.426Z,94.29
2018-09-04T06:40:45.944Z,93.62
2018-09-04T06:41:26.467Z,94.58
2018-09-04T06:42:06.998Z,97.86
2018-09-04T06:42:47.543Z,92.61
2018-09-04T06:43:29.786Z,91.36
2018-09-04T06:44:10.314Z,92.32
2018-09-04T06:44:50.877Z,91.64
2018-09-04T06:45:31.387Z,92.61
2018-09-04T06:46:11.908Z,94.78
2018-09-04T06:46:52.440Z,91.88
2018-09-04T06:47:32.965Z,91.6
2018-09-04T06:48:13.520Z,94.06
2018-09-04T06:48:54.051Z,97.57
2018-09-04T06:49:34.598Z,99.99
2018-09-04T06:50:15.119Z,99.99
2018-09-04T06:50:55.643Z,99.99
2018-09-04T06:51:36.152Z,99.99
2018-09-04T06:52:16.660Z,99.99
2018-09-04T06:52:57.173Z,99.99
2018-09-04T06:53:37.686Z,99.6
2018-09-04T06:54:18.214Z,97.19
2018-09-04T06:54:58.730Z,94.2
2018-09-04T06:55:39.263Z,94.2
2018-09-04T06:56:19.804Z,95.16
2018-09-04T06:57:00.329Z,98.29
2018-09-04T06:57:40.844Z,99.26
2018-09-04T06:58:21.414Z,94.43
2018-09-04T06:59:01.888Z,94.73
2018-09-04T06:59:42.408Z,96.56
2018-09-04T07:01:35.512Z,94.05
2018-09-04T07:02:16.030Z,93.18
2018-09-04T07:02:56.556Z,99.4
2018-09-04T07:03:37.068Z,99.02
2018-09-04T07:04:17.600Z,96.8
2018-09-04T07:04:58.121Z,94.68
2018-09-04T07:05:38.667Z,94.2
2018-09-04T07:06:19.182Z,95.83
2018-09-04T07:06:59.715Z,98.54
2018-09-04T07:07:40.225Z,96.99
2018-09-04T07:08:20.776Z,94.87
2018-09-04T07:09:01.302Z,91.88
2018-09-04T07:09:41.830Z,92.36
2018-09-04T07:10:22.358Z,88.59
2018-09-04T07:11:02.884Z,87.05
2018-09-04T07:11:43.399Z,87.63
2018-09-04T07:12:23.923Z,87.44
2018-09-04T07:13:04.430Z,87.92
2018-09-04T07:13:44.943Z,92.94
2018-09-04T07:14:25.958Z,92.74
2018-09-04T07:15:06.555Z,89.27
2018-09-04T07:15:47.002Z,93.04
2018-09-04T07:16:27.560Z,93.52
2018-09-04T07:17:08.129Z,93.8
2018-09-04T07:17:48.612Z,92.74
2018-09-04T07:18:29.140Z,91.97
2018-09-04T07:19:09.659Z,91.15
2018-09-04T07:19:50.180Z,89.31
2018-09-04T07:20:30.696Z,91.15
2018-09-04T07:21:11.214Z,90.47
2018-09-04T07:21:51.736Z,88.83
2018-09-04T07:22:32.237Z,90.47
2018-09-04T07:23:12.767Z,86.71
2018-09-04T07:23:53.308Z,87.87
2018-09-04T07:24:33.821Z,90.09
2018-09-04T07:25:14.352Z,90.67
2018-09-04T07:25:54.886Z,92.07
2018-09-04T07:26:35.411Z,92.16
2018-09-04T07:27:15.989Z,92.35
2018-09-04T07:27:56.495Z,90.52
2018-09-04T07:28:37.026Z,92.35
2018-09-04T07:29:18.206Z,92.31
2018-09-04T07:29:58.122Z,91.92
2018-09-04T07:30:38.656Z,92.41
2018-09-04T07:31:19.197Z,89.45
2018-09-04T07:33:07.190Z,87.91
2018-09-04T07:33:47.713Z,87.13
2018-09-04T07:34:28.215Z,88.49
2018-09-04T07:35:08.736Z,89.07
2018-09-04T07:35:49.263Z,84.63
2018-09-04T07:36:29.930Z,83.95
2018-09-04T07:37:10.332Z,87.43
2018-09-04T07:37:50.865Z,84.82
2018-09-04T07:38:31.399Z,87.71
2018-09-04T07:39:11.914Z,87.71
2018-09-04T07:39:52.431Z,87.33
2018-09-04T07:40:32.966Z,85.78
2018-09-04T07:41:13.476Z,84.43
2018-09-04T07:41:54.048Z,83.85
2018-09-04T07:42:34.521Z,85.53
2018-09-04T07:43:15.043Z,86.94
2018-09-04T07:43:55.575Z,86.17
2018-09-04T07:44:36.090Z,87.13
2018-09-04T07:45:16.611Z,87.33
2018-09-04T07:45:57.123Z,87.62
2018-09-04T07:46:37.642Z,89.31
2018-09-04T07:47:18.224Z,85.15
2018-09-04T07:47:58.743Z,84.77
2018-09-04T07:48:39.269Z,83.99
2018-09-04T07:49:19.831Z,84.19
2018-09-04T07:50:00.407Z,85.53
2018-09-04T07:50:40.936Z,85.87
2018-09-04T07:51:21.474Z,86.83
2018-09-04T07:52:01.987Z,86.93
2018-09-04T07:52:42.513Z,86.35
2018-09-04T07:53:23.030Z,87.03
2018-09-04T07:54:03.569Z,87.61
2018-09-04T07:54:44.117Z,87.71
2018-09-04T07:55:24.872Z,88.09
2018-09-04T07:56:05.429Z,88.77
2018-09-04T07:56:45.948Z,88.87
2018-09-04T07:57:26.475Z,88.67
2018-09-04T07:58:06.999Z,87.51
2018-09-04T07:58:47.521Z,87.61
2018-09-04T07:59:28.044Z,87.23
2018-09-04T08:00:08.587Z,87.32
2018-09-04T08:00:49.121Z,83.94
2018-09-04T08:01:29.621Z,82.78
2018-09-04T08:02:10.227Z,81.71
2018-09-04T08:02:50.742Z,84.52
2018-09-04T08:03:31.258Z,85.1
2018-09-04T08:04:11.788Z,85.39
2018-09-04T08:04:52.382Z,87.13
2018-09-04T08:05:33.027Z,88.67
2018-09-04T08:06:13.610Z,85.97
2018-09-04T08:06:54.123Z,82.97
2018-09-04T08:07:34.639Z,83.16
2018-09-04T08:08:15.282Z,83.64
2018-09-04T08:08:55.826Z,88.77
2018-09-04T08:09:36.384Z,89.35
2018-09-04T08:10:17.046Z,88.87
2018-09-04T08:10:57.505Z,90.03
2018-09-04T08:11:38.019Z,87.99
2018-09-04T08:12:18.565Z,87.23
2018-09-04T08:12:59.109Z,86.83
2018-09-04T08:13:39.618Z,86.16
2018-09-04T08:14:20.172Z,88.43
2018-09-04T08:15:00.723Z,90.61
2018-09-04T08:15:41.287Z,89.29
2018-09-04T08:16:21.894Z,93.07
2018-09-04T08:17:02.340Z,95.29
2018-09-04T08:17:43.362Z,96.36
2018-09-04T08:18:23.891Z,92.64
2018-09-04T08:19:04.421Z,93.22
2018-09-04T08:19:44.932Z,91.58
2018-09-04T08:20:25.525Z,92
2018-09-04T08:21:05.996Z,92.1
2018-09-04T08:21:46.509Z,92.2
2018-09-04T08:22:27.037Z,88.23
2018-09-04T08:23:07.551Z,92.2
2018-09-04T08:23:48.078Z,89.01
2018-09-04T08:24:28.595Z,88.04
2018-09-04T08:25:09.114Z,87.85
2018-09-04T08:25:49.727Z,86.69
2018-09-04T08:26:30.295Z,85.62
2018-09-04T08:27:10.822Z,86.88
2018-09-04T08:27:51.499Z,88.13
2018-09-04T08:28:32.081Z,88.43
2018-09-04T08:30:50.591Z,90.12
2018-09-04T08:31:31.096Z,92.2
2018-09-04T08:32:11.625Z,89.97
2018-09-04T08:32:52.342Z,92.68
2018-09-04T08:33:32.775Z,96.84
2018-09-04T08:34:13.305Z,93.94
2018-09-04T08:34:53.868Z,92.78
2018-09-04T08:35:34.402Z,91.42
2018-09-04T08:36:14.960Z,92.4
2018-09-04T08:36:55.500Z,89.44
2018-09-04T08:37:36.024Z,86.2
2018-09-04T08:38:16.536Z,92.83
2018-09-04T08:38:57.256Z,90.21
2018-09-04T08:39:37.784Z,85.91
2018-09-04T08:40:18.415Z,95.15
2018-09-04T08:40:59.035Z,95.1
2018-09-04T08:41:39.490Z,89.97
2018-09-04T08:42:20.018Z,89.39
2018-09-04T08:43:00.631Z,89.34
2018-09-04T08:43:41.150Z,96.22
2018-09-04T08:44:21.681Z,96.31
2018-09-04T08:45:02.216Z,94.28
2018-09-04T08:45:42.747Z,91.28
2018-09-04T08:46:23.278Z,87.95
2018-09-04T08:47:03.900Z,86.24
2018-09-04T08:47:44.405Z,87.41
2018-09-04T08:48:24.888Z,84.31
2018-09-04T08:49:05.436Z,89.34
2018-09-04T08:49:45.972Z,93.12
2018-09-04T08:50:26.776Z,91.28
2018-09-04T08:51:07.327Z,86.15
2018-09-04T08:51:47.958Z,92.54
2018-09-04T08:52:28.523Z,94.47